createdAt,value
2023-01-08T14:51:13.721Z,94.73
2023-01-08T14:53:55.892Z,95.46
2023-01-08T14:56:33.285Z,95.22
2023-01-08T14:59:06.477Z,95.36
2023-01-08T15:01:34.115Z,94.90
2023-01-08T15:04:17.299Z,95.09
2023-01-08T15:06:44.992Z,95.61
2023-01-08T15:09:32.855Z,94.71
2023-01-08T15:12:05.277Z,94.54
2023-01-08T15:14:37.035Z,95.10
2023-01-08T15:17:11.521Z,95.37
2023-01-08T15:20:02.182Z,94.51
2023-01-08T15:22:32.862Z,94.93
2023-01-08T15:25:07.040Z,94.85
2023-01-08T15:27:37.860Z,94.82
2023-01-08T15:30:09.142Z,95.13
2023-01-08T15:32:37.402Z,95.42
2023-01-08T15:35:16.113Z,95.65
2023-01-08T15:37:43.295Z,95.17
2023-01-08T15:40:12.369Z,95.19
2023-01-08T15:42:57.985Z,95.24
2023-01-08T15:45:32.475Z,95.56
2023-01-08T15:47:59.918Z,95.25
2023-01-08T15:50:28.554Z,95.20
2023-01-08T15:53:01.027Z,95.42
2023-01-08T15:55:28.294Z,95.52
2023-01-08T15:57:56.193Z,95.77
2023-01-08T16:00:23.789Z,95.75
2023-01-08T16:02:53.159Z,95.48
2023-01-08T16:05:22.776Z,95.23
2023-01-08T16:07:49.731Z,95.45
2023-01-08T16:10:17.673Z,95.66
2023-01-08T16:12:44.661Z,95.58
2023-01-08T16:15:13.076Z,95.60
2023-01-08T16:17:40.441Z,95.55
2023-01-08T16:20:08.853Z,95.40
2023-01-08T16:22:35.920Z,95.67
2023-01-08T16:25:04.108Z,95.20
2023-01-08T16:27:32.125Z,95.45
2023-01-08T16:29:59.608Z,95.00
2023-01-08T16:32:26.562Z,95.47
2023-01-08T16:34:54.975Z,95.67
2023-01-08T16:37:22.417Z,95.39
2023-01-08T16:39:49.884Z,95.50
2023-01-08T16:42:16.899Z,95.23
2023-01-08T16:44:45.126Z,95.58
2023-01-08T16:47:12.032Z,95.37
2023-01-08T16:49:41.544Z,95.09
2023-01-08T16:52:09.660Z,95.17
2023-01-08T16:54:37.582Z,95.51
2023-01-08T16:57:04.758Z,95.42
2023-01-08T16:59:33.147Z,94.77
2023-01-08T17:02:00.542Z,95.09
2023-01-08T17:04:31.436Z,95.04
2023-01-08T17:06:58.704Z,94.93
2023-01-08T17:09:26.156Z,95.31
2023-01-08T17:11:53.056Z,94.85
2023-01-08T17:14:20.394Z,95.36
2023-01-08T17:16:49.126Z,94.98
2023-01-08T17:19:17.276Z,95.32
2023-01-08T17:21:45.968Z,94.95
2023-01-08T17:24:13.267Z,95.76
2023-01-08T17:26:40.257Z,95.23
2023-01-08T17:29:07.586Z,95.22
2023-01-08T17:31:39.933Z,95.52
2023-01-08T17:34:11.735Z,95.12
2023-01-08T17:36:38.694Z,95.72
2023-01-08T17:39:05.895Z,95.95
2023-01-08T17:41:54.173Z,95.37
2023-01-08T17:44:21.549Z,95.24
2023-01-08T17:46:48.935Z,95.73
2023-01-08T17:49:16.759Z,95.58
2023-01-08T17:51:45.997Z,95.42
2023-01-08T17:54:15.405Z,95.58
2023-01-08T17:56:43.085Z,95.77
2023-01-08T17:59:15.148Z,95.60
2023-01-08T18:01:42.355Z,95.69
2023-01-08T18:04:09.594Z,95.71
2023-01-08T18:06:36.538Z,95.68
2023-01-08T18:09:04.557Z,95.74
2023-01-08T18:11:31.823Z,96.04
2023-01-08T18:14:02.067Z,96.03
2023-01-08T18:16:30.678Z,96.10
2023-01-08T18:18:58.911Z,96.02
2023-01-08T18:21:27.084Z,96.00
2023-01-08T18:23:54.347Z,96.12
2023-01-08T18:26:22.293Z,96.22
2023-01-08T18:28:51.662Z,96.05
2023-01-08T18:31:19.007Z,96.13
2023-01-08T18:33:50.589Z,96.55
2023-01-08T18:36:18.262Z,96.24
2023-01-08T18:38:45.745Z,96.62
2023-01-08T18:41:35.530Z,96.56
2023-01-08T18:44:05.145Z,96.94
2023-01-08T18:46:32.328Z,96.24
2023-01-08T18:48:59.917Z,96.42
2023-01-08T18:51:26.881Z,96.73
2023-01-08T18:53:54.338Z,96.94
2023-01-08T18:56:26.758Z,96.81
2023-01-08T18:58:54.013Z,96.32
2023-01-08T19:01:21.089Z,96.26
2023-01-08T19:03:48.426Z,96.14
2023-01-08T19:06:16.694Z,96.25
2023-01-08T19:08:45.359Z,96.09
2023-01-08T19:11:13.496Z,96.17
2023-01-08T19:13:41.218Z,96.12
2023-01-08T19:16:11.046Z,96.12
2023-01-08T19:18:39.249Z,96.52
2023-01-08T19:21:07.409Z,96.83
2023-01-08T19:23:35.413Z,96.57
2023-01-08T19:26:07.326Z,96.64
2023-01-08T19:28:34.961Z,96.56
2023-01-08T19:31:02.777Z,96.29
2023-01-08T19:33:30.009Z,96.47
2023-01-08T19:36:01.613Z,96.57
2023-01-08T19:38:28.863Z,96.40
2023-01-08T19:41:00.247Z,96.32
2023-01-08T19:43:42.652Z,96.48
2023-01-08T19:46:12.088Z,96.08
2023-01-08T19:49:01.934Z,96.40
2023-01-08T19:51:31.083Z,96.33
2023-01-08T19:53:58.404Z,96.67
2023-01-08T19:56:26.215Z,96.06
2023-01-08T19:58:55.385Z,96.43
2023-01-08T20:01:26.343Z,96.26
2023-01-08T20:03:54.418Z,96.28
2023-01-08T20:06:25.223Z,96.37
2023-01-08T20:09:00.079Z,96.53
2023-01-08T20:11:28.468Z,96.29
2023-01-08T20:13:56.676Z,96.45
2023-01-08T20:16:24.592Z,96.29
2023-01-08T20:18:55.807Z,96.34
2023-01-08T20:21:23.983Z,96.51
2023-01-08T20:24:06.182Z,96.00
2023-01-08T20:26:36.227Z,96.42
2023-01-08T20:29:04.422Z,96.67
2023-01-08T20:31:33.060Z,96.49
2023-01-08T20:34:03.080Z,97.14
2023-01-08T20:36:32.791Z,97.15
2023-01-08T20:39:02.457Z,97.43
2023-01-08T20:41:30.156Z,97.46
2023-01-08T20:43:57.502Z,97.15
2023-01-08T20:46:29.638Z,97.70
2023-01-08T20:49:04.905Z,97.62
2023-01-08T20:51:34.226Z,97.77
2023-01-08T20:54:03.014Z,97.44
2023-01-08T20:56:30.597Z,97.76
2023-01-08T20:58:57.646Z,98.19
2023-01-08T21:01:28.426Z,98.35
2023-01-08T21:03:56.841Z,98.33
2023-01-08T21:06:26.443Z,98.29
2023-01-08T21:08:55.640Z,98.29
2023-01-08T21:11:23.976Z,98.43
2023-01-08T21:13:51.324Z,98.53
2023-01-08T21:16:24.457Z,98.33
2023-01-08T21:18:54.205Z,98.52
2023-01-08T21:21:32.051Z,98.74
2023-01-08T21:24:04.121Z,98.90
2023-01-08T21:26:33.939Z,99.24
2023-01-08T21:29:06.282Z,99.03
2023-01-08T21:31:35.276Z,99.03
2023-01-08T21:34:04.000Z,99.36
2023-01-08T21:36:32.662Z,99.24
2023-01-08T21:39:01.169Z,99.33
2023-01-08T21:41:49.059Z,99.45
2023-01-08T21:44:37.537Z,99.63
2023-01-08T21:47:07.269Z,99.33
2023-01-08T21:49:36.073Z,99.54
2023-01-08T21:52:23.040Z,99.63
2023-01-08T21:54:51.020Z,99.54
2023-01-08T21:57:18.430Z,100.00
2023-01-08T21:59:45.577Z,99.90
2023-01-08T22:02:18.016Z,100.00
2023-01-08T22:04:45.762Z,99.80
2023-01-08T22:07:13.975Z,100.00
2023-01-08T22:09:41.120Z,100.00
2023-01-08T22:12:08.769Z,100.00
2023-01-08T22:14:35.802Z,100.00
2023-01-08T22:17:04.247Z,100.00
2023-01-08T22:19:31.217Z,99.98
2023-01-08T22:21:58.400Z,100.00
2023-01-08T22:24:25.308Z,100.00
2023-01-08T22:26:52.577Z,100.00
2023-01-08T22:29:19.423Z,100.00
2023-01-08T22:31:46.582Z,100.00
2023-01-08T22:34:17.243Z,100.00
2023-01-08T22:36:49.682Z,100.00
2023-01-08T22:39:16.609Z,100.00
2023-01-08T22:41:44.750Z,100.00
2023-01-08T22:44:12.470Z,100.00
2023-01-08T22:46:40.374Z,100.00
2023-01-08T22:49:09.969Z,100.00
2023-01-08T22:51:37.155Z,100.00
2023-01-08T22:54:04.214Z,100.00
2023-01-08T22:56:31.884Z,100.00
2023-01-08T22:58:58.969Z,100.00
2023-01-08T23:01:29.879Z,100.00
2023-01-08T23:04:00.987Z,100.00
2023-01-08T23:06:30.518Z,100.00
2023-01-08T23:08:58.182Z,100.00
2023-01-08T23:11:26.341Z,100.00
2023-01-08T23:13:53.900Z,100.00
2023-01-08T23:16:24.660Z,100.00
2023-01-08T23:18:53.950Z,100.00
2023-01-08T23:21:23.374Z,100.00
2023-01-08T23:23:50.582Z,100.00
2023-01-08T23:26:23.502Z,100.00
2023-01-08T23:28:51.660Z,100.00
2023-01-08T23:31:29.587Z,100.00
2023-01-08T23:33:57.851Z,100.00
2023-01-08T23:36:26.082Z,100.00
2023-01-08T23:38:55.185Z,100.00
2023-01-08T23:41:31.980Z,100.00
2023-01-08T23:44:05.385Z,100.00
2023-01-08T23:46:33.027Z,100.00
2023-01-08T23:48:59.945Z,100.00
2023-01-08T23:51:27.691Z,100.00
2023-01-08T23:53:54.557Z,100.00
2023-01-08T23:56:22.616Z,100.00
2023-01-08T23:58:49.908Z,100.00
